Time;durP1;ratioP1;P1;durP2;ratioP2;P2;SDS_P1;SDS_P2;PMS_P1;PMS_P2;Temp;Humidity;BMP_temperature;BMP_pressure;BME280_temperature;BME280_humidity;BME280_pressure;Samples;Min_cycle;Max_cycle;Signal;HPM_P1;HPM_P2
2023/08/09 00:01:01;;;;;;;7.30;5.50;;;;;;;15.76;100.00;100466.94;4992399;28;20496;-94
2023/08/09 00:03:27;;;;;;;8.55;6.65;;;;;;;15.83;100.00;100469.91;4988927;28;20033;-94
2023/08/09 00:05:52;;;;;;;10.88;6.75;;;;;;;15.76;100.00;100469.53;4973045;28;20027;-94
2023/08/09 00:08:18;;;;;;;9.50;5.72;;;;;;;15.83;100.00;100469.91;4974060;28;20073;-94
2023/08/09 00:10:43;;;;;;;8.90;6.00;;;;;;;15.74;100.00;100466.22;4972994;28;20023;-94
2023/08/09 00:13:08;;;;;;;9.00;6.75;;;;;;;15.90;100.00;100471.06;4993592;28;20026;-95
2023/08/09 00:15:34;;;;;;;9.45;5.70;;;;;;;15.84;100.00;100467.16;4993618;28;20138;-95
2023/08/09 00:17:59;;;;;;;10.18;7.00;;;;;;;15.86;100.00;100464.44;4991733;28;20477;-95
2023/08/09 00:20:25;;;;;;;8.75;6.18;;;;;;;15.81;100.00;100462.19;4992284;28;20053;-95
2023/08/09 00:22:50;;;;;;;9.32;6.07;;;;;;;15.80;100.00;100468.38;4993197;28;20042;-95
2023/08/09 00:25:16;;;;;;;14.50;7.40;;;;;;;15.84;100.00;100463.72;4991939;28;20022;-96
2023/08/09 00:27:42;;;;;;;10.48;6.47;;;;;;;15.80;100.00;100464.91;4978068;28;20030;-95
2023/08/09 00:30:10;;;;;;;9.15;5.80;;;;;;;15.87;100.00;100475.66;4972741;28;20473;-95
2023/08/09 00:32:37;;;;;;;9.95;6.13;;;;;;;15.82;100.00;100463.03;4972523;28;20027;-96
2023/08/09 00:35:03;;;;;;;10.80;6.85;;;;;;;15.75;100.00;100462.69;4974034;28;20026;-96
2023/08/09 00:37:29;;;;;;;13.07;6.75;;;;;;;15.86;100.00;100474.03;4988505;28;20019;-96
2023/08/09 00:39:55;;;;;;;11.55;6.70;;;;;;;15.87;100.00;100480.88;4972387;28;20029;-96
2023/08/09 00:42:21;;;;;;;9.32;6.43;;;;;;;15.93;100.00;100476.03;4972524;28;20038;-95
2023/08/09 00:44:46;;;;;;;11.15;5.93;;;;;;;15.94;100.00;100476.84;4972210;28;20027;-95
2023/08/09 00:47:12;;;;;;;9.82;5.97;;;;;;;15.82;100.00;100481.25;4972103;28;20111;-95
2023/08/09 00:49:37;;;;;;;11.30;6.60;;;;;;;15.98;100.00;100483.47;4972293;28;20023;-95
2023/08/09 00:52:03;;;;;;;9.45;6.30;;;;;;;15.98;100.00;100488.69;4972359;28;20031;-95
2023/08/09 00:54:29;;;;;;;8.82;6.15;;;;;;;15.89;100.00;100485.00;4972187;28;20082;-94
2023/08/09 00:56:55;;;;;;;11.07;7.07;;;;;;;15.95;100.00;100491.53;4982540;28;20050;-94
2023/08/09 00:59:20;;;;;;;9.77;5.65;;;;;;;15.86;100.00;100490.47;4991722;28;20499;-96
2023/08/09 01:01:45;;;;;;;9.93;6.03;;;;;;;15.99;100.00;100485.13;4991583;28;20041;-95
2023/08/09 01:04:11;;;;;;;9.90;6.07;;;;;;;15.90;100.00;100485.84;4982609;28;20117;-95
2023/08/09 01:06:53;;;;;;;9.82;5.43;;;;;;;15.87;100.00;100480.88;4971862;28;20019;-96
2023/08/09 01:09:29;;;;;;;;;;;;;;;15.81;100.00;100479.59;4972501;28;20022;-96
2023/08/09 01:12:01;;;;;;;15.27;5.78;;;;;;;15.74;100.00;100486.22;4986086;28;19921;-95
2023/08/09 01:14:28;;;;;;;9.25;5.85;;;;;;;15.80;100.00;100485.72;4979680;28;20205;-95
2023/08/09 01:16:57;;;;;;;10.18;5.38;;;;;;;15.76;100.00;100472.16;4972047;28;20023;-96
2023/08/09 01:19:41;;;;;;;9.55;5.60;;;;;;;15.75;100.00;100491.31;4971905;28;20023;-94
2023/08/09 01:22:17;;;;;;;7.72;5.50;;;;;;;15.74;100.00;100494.84;4977484;28;20045;-95
2023/08/09 01:24:44;;;;;;;10.57;5.18;;;;;;;15.64;100.00;100496.50;4992665;28;20026;-95
2023/08/09 01:27:10;;;;;;;11.50;5.78;;;;;;;15.80;100.00;100493.53;4975131;28;20038;-94
2023/08/09 01:29:37;;;;;;;8.50;5.00;;;;;;;15.73;100.00;100500.19;4971977;28;20026;-95
2023/08/09 01:32:03;;;;;;;12.48;6.13;;;;;;;15.68;100.00;100495.31;4971420;28;20042;-94
2023/08/09 01:34:28;;;;;;;7.25;4.53;;;;;;;15.63;100.00;100494.84;4971910;28;20516;-94
2023/08/09 01:36:57;;;;;;;10.30;4.85;;;;;;;15.59;100.00;100493.44;4971842;28;20019;-94
2023/08/09 01:39:29;;;;;;;8.85;5.55;;;;;;;15.63;100.00;100494.84;4973148;28;20385;-95
2023/08/09 01:41:56;;;;;;;10.45;5.72;;;;;;;15.69;100.00;100504.78;4984771;28;20268;-95
2023/08/09 01:44:23;;;;;;;7.95;5.47;;;;;;;15.68;100.00;100513.53;4971664;28;20098;-96
2023/08/09 01:46:49;;;;;;;7.53;5.40;;;;;;;15.63;100.00;100506.09;4971901;28;20498;-95
2023/08/09 01:49:17;;;;;;;9.82;5.07;;;;;;;15.62;100.00;100507.00;4971908;28;20038;-95
2023/08/09 01:51:43;;;;;;;9.65;5.35;;;;;;;15.63;100.00;100506.09;4971215;28;20042;-95
2023/08/09 01:54:08;;;;;;;7.07;4.95;;;;;;;15.55;100.00;100503.22;4971493;28;20026;-96
2023/08/09 01:56:35;;;;;;;9.25;5.97;;;;;;;15.62;100.00;100509.63;4987213;28;20129;-96
2023/08/09 01:59:00;;;;;;;8.52;5.65;;;;;;;15.54;100.00;100516.38;4990910;28;20109;-96
2023/08/09 02:01:26;;;;;;;6.50;4.65;;;;;;;15.54;100.00;100524.19;4992330;28;20461;-95
2023/08/09 02:03:53;;;;;;;9.05;5.53;;;;;;;15.49;100.00;100523.72;4974381;28;20040;-94
2023/08/09 02:06:18;;;;;;;6.80;5.50;;;;;;;15.57;100.00;100532.56;4991656;28;20034;-96
2023/08/09 02:08:44;;;;;;;6.65;5.25;;;;;;;15.65;100.00;100534.56;4992563;28;20432;-94
2023/08/09 02:11:09;;;;;;;8.68;6.03;;;;;;;15.56;100.00;100532.69;4982637;28;20030;-95
2023/08/09 02:13:35;;;;;;;8.35;5.60;;;;;;;15.66;100.00;100525.81;4991913;28;20045;-94
2023/08/09 02:16:04;;;;;;;11.25;5.97;;;;;;;15.71;100.00;100534.13;4995460;28;20022;-94
2023/08/09 02:18:29;;;;;;;11.38;6.10;;;;;;;15.60;100.00;100534.09;4995422;28;20019;-95
2023/08/09 02:20:54;;;;;;;7.22;5.07;;;;;;;15.55;100.00;100544.03;4993956;28;20042;-96
2023/08/09 02:23:20;;;;;;;7.85;5.55;;;;;;;15.57;100.00;100537.75;4994702;28;20050;-95
2023/08/09 02:25:46;;;;;;;7.63;5.22;;;;;;;15.56;100.00;100545.72;4983365;28;20023;-94
2023/08/09 02:28:12;;;;;;;8.52;5.47;;;;;;;15.74;100.00;100553.88;4975055;28;20023;-96
2023/08/09 02:30:37;;;;;;;8.85;4.88;;;;;;;15.73;100.00;100547.88;4976218;28;20034;-94
2023/08/09 02:33:03;;;;;;;14.13;7.32;;;;;;;15.69;100.00;100543.78;4975520;28;20038;-95
2023/08/09 02:35:32;;;;;;;9.23;6.15;;;;;;;15.63;100.00;100536.47;4975314;28;20023;-96
2023/08/09 02:37:57;;;;;;;11.30;6.05;;;;;;;15.60;100.00;100547.09;4975149;28;20030;-95
2023/08/09 02:40:23;;;;;;;10.90;6.70;;;;;;;15.52;100.00;100554.69;4975314;28;20229;-95
2023/08/09 02:42:48;;;;;;;9.15;5.75;;;;;;;15.44;100.00;100542.25;4975192;28;20031;-95
2023/08/09 02:45:14;;;;;;;9.32;6.43;;;;;;;15.48;100.00;100542.84;4975468;28;20355;-95
2023/08/09 02:47:40;;;;;;;10.90;6.22;;;;;;;15.57;100.00;100531.72;4975419;28;20062;-96
2023/08/09 02:50:06;;;;;;;8.82;6.20;;;;;;;15.50;100.00;100535.75;4979120;28;20043;-96
2023/08/09 02:52:31;;;;;;;10.27;6.13;;;;;;;15.50;100.00;100525.34;4975502;28;20564;-96
2023/08/09 02:54:57;;;;;;;8.88;5.70;;;;;;;15.43;100.00;100530.19;4976621;28;20058;-96
2023/08/09 02:57:22;;;;;;;12.07;6.40;;;;;;;15.39;100.00;100539.19;4975367;28;20022;-95
2023/08/09 02:59:47;;;;;;;10.90;6.82;;;;;;;15.39;100.00;100537.41;4974965;28;20114;-96
2023/08/09 03:02:13;;;;;;;10.73;5.97;;;;;;;15.37;100.00;100539.28;4974815;28;20031;-95
2023/08/09 03:04:38;;;;;;;10.90;6.05;;;;;;;15.50;100.00;100535.75;4976232;28;20058;-96
2023/08/09 03:07:04;;;;;;;13.30;6.82;;;;;;;15.46;100.00;100539.53;4974984;28;20033;-96
2023/08/09 03:09:29;;;;;;;10.75;6.00;;;;;;;15.55;100.00;100533.63;4974222;28;20166;-95
2023/08/09 03:11:55;;;;;;;12.30;6.03;;;;;;;15.51;100.00;100547.81;4974535;28;20030;-96
2023/08/09 03:14:20;;;;;;;10.57;6.35;;;;;;;15.44;100.00;100541.44;4974521;28;20034;-95
2023/08/09 03:16:46;;;;;;;13.52;6.72;;;;;;;15.46;100.00;100552.53;4974632;28;20121;-96
2023/08/09 03:19:11;;;;;;;11.38;6.28;;;;;;;15.43;100.00;100563.19;4973660;28;20065;-94
2023/08/09 03:21:37;;;;;;;11.20;6.28;;;;;;;15.36;100.00;100555.00;4990187;28;20473;-94
2023/08/09 03:24:02;;;;;;;12.38;6.43;;;;;;;15.33;100.00;100558.66;4973653;28;20034;-95
2023/08/09 03:26:28;;;;;;;9.85;6.70;;;;;;;15.31;100.00;100560.53;4993516;28;20304;-95
2023/08/09 03:28:54;;;;;;;9.98;5.88;;;;;;;15.35;100.00;100561.16;4989707;28;20053;-95
2023/08/09 03:31:19;;;;;;;11.15;6.40;;;;;;;15.32;100.00;100556.19;4987403;28;20397;-95
2023/08/09 03:33:44;;;;;;;9.35;6.00;;;;;;;15.27;100.00;100564.34;4975264;28;20027;-96
2023/08/09 03:36:12;;;;;;;9.23;6.47;;;;;;;15.21;100.00;100564.78;4974325;28;20031;-95
2023/08/09 03:38:37;;;;;;;9.70;6.72;;;;;;;15.19;100.00;100564.91;4974391;28;20023;-95
2023/08/09 03:41:03;;;;;;;11.32;5.88;;;;;;;15.21;100.00;100567.38;4975928;28;20474;-95
2023/08/09 03:43:28;;;;;;;8.13;5.60;;;;;;;15.21;100.00;100570.00;4973688;28;20039;-95
2023/08/09 03:45:54;;;;;;;10.13;6.40;;;;;;;15.24;100.00;100572.38;4974097;28;20378;-96
2023/08/09 03:48:19;;;;;;;10.10;5.55;;;;;;;15.15;100.00;100573.88;4974378;28;20055;-96
2023/08/09 03:50:44;;;;;;;8.90;5.95;;;;;;;15.17;100.00;100586.78;4974640;28;20030;-95
2023/08/09 03:53:10;;;;;;;8.70;5.93;;;;;;;15.14;100.00;100579.19;4974336;28;20046;-96
2023/08/09 03:55:35;;;;;;;10.02;6.45;;;;;;;15.14;100.00;100576.59;4974099;28;20533;-95
2023/08/09 03:58:01;;;;;;;11.07;7.18;;;;;;;15.19;100.00;100574.47;4974165;28;20031;-96
2023/08/09 04:00:26;;;;;;;11.25;7.00;;;;;;;15.23;100.00;100569.88;4980159;28;20021;-95
2023/08/09 04:02:52;;;;;;;9.73;6.40;;;;;;;15.17;100.00;100573.78;4980619;28;20118;-96
2023/08/09 04:05:19;;;;;;;8.20;6.40;;;;;;;15.09;100.00;100579.53;4974108;28;20026;-96
2023/08/09 04:07:45;;;;;;;21.98;6.90;;;;;;;15.09;100.00;100584.72;4973827;28;20161;-95
2023/08/09 04:10:12;;;;;;;8.88;6.10;;;;;;;15.05;100.00;100577.28;4973426;28;20069;-96
2023/08/09 04:12:38;;;;;;;10.63;5.70;;;;;;;15.04;100.00;100580.81;4980228;28;20022;-96
2023/08/09 04:15:04;;;;;;;9.82;5.30;;;;;;;14.99;100.00;100581.97;4995034;28;20032;-96
2023/08/09 04:17:31;;;;;;;12.18;5.90;;;;;;;15.01;100.00;100596.66;4994340;28;20025;-96
2023/08/09 04:19:57;;;;;;;10.00;6.20;;;;;;;15.01;100.00;100596.66;4989635;28;20022;-96
2023/08/09 04:22:23;;;;;;;11.75;6.03;;;;;;;15.00;100.00;100595.81;4974759;28;20035;-96
2023/08/09 04:24:49;;;;;;;8.27;5.30;;;;;;;14.96;100.00;100597.81;4974666;28;20053;-96
2023/08/09 04:27:14;;;;;;;10.63;6.20;;;;;;;14.88;100.00;100592.34;4974698;28;20540;-96
2023/08/09 04:29:40;;;;;;;9.93;5.75;;;;;;;14.92;100.00;100592.94;4974760;28;20026;-96
2023/08/09 04:32:05;;;;;;;11.57;6.80;;;;;;;14.87;100.00;100595.88;4994165;28;20030;-96
2023/08/09 04:34:31;;;;;;;9.70;5.88;;;;;;;14.85;100.00;100596.91;4993990;28;20050;-96
2023/08/09 04:36:56;;;;;;;9.10;6.65;;;;;;;14.80;100.00;100597.25;4994763;28;20069;-96
2023/08/09 04:39:23;;;;;;;7.40;5.32;;;;;;;14.76;100.00;100598.44;4993199;28;20288;-96
2023/08/09 04:41:49;;;;;;;8.15;5.97;;;;;;;14.76;100.00;100601.03;4991550;28;20062;-95
2023/08/09 04:44:15;;;;;;;8.02;5.35;;;;;;;14.65;100.00;100608.75;4987947;28;20062;-95
2023/08/09 04:46:41;;;;;;;10.00;6.15;;;;;;;14.64;100.00;100600.16;4973325;28;20034;-95
2023/08/09 04:49:06;;;;;;;9.38;5.82;;;;;;;14.65;100.00;100613.97;4973309;28;20027;-96
2023/08/09 04:51:32;;;;;;;8.77;5.35;;;;;;;14.61;100.00;100612.53;4972972;28;20512;-95
2023/08/09 04:53:57;;;;;;;33.03;6.70;;;;;;;14.63;100.00;100615.81;4973222;28;20030;-96
2023/08/09 04:56:23;;;;;;;10.45;6.10;;;;;;;14.54;100.00;100615.56;4974602;28;20389;-96
2023/08/09 04:58:48;;;;;;;7.75;5.93;;;;;;;14.54;100.00;100618.16;4985542;28;20497;-96
2023/08/09 05:01:14;;;;;;;11.20;6.25;;;;;;;14.52;100.00;100622.59;4979101;28;20524;-96
2023/08/09 05:03:39;;;;;;;9.85;6.03;;;;;;;14.47;100.00;100618.66;4989273;28;20242;-95
2023/08/09 05:06:05;;;;;;;8.35;5.80;;;;;;;14.44;100.00;100624.91;4973020;28;20461;-95
2023/08/09 05:08:30;;;;;;;11.40;6.72;;;;;;;14.45;100.00;100625.75;4973236;28;20027;-95
2023/08/09 05:10:55;;;;;;;8.50;5.25;;;;;;;14.42;100.00;100621.59;4983117;28;20113;-95
2023/08/09 05:13:21;;;;;;;7.97;5.28;;;;;;;14.43;100.00;100622.41;4991048;28;20441;-95
2023/08/09 05:15:46;;;;;;;9.13;5.35;;;;;;;14.44;100.00;100614.53;4990777;28;20077;-95
2023/08/09 05:18:12;;;;;;;9.27;5.18;;;;;;;14.46;100.00;100617.84;4988991;28;20446;-96
2023/08/09 05:20:38;;;;;;;11.15;6.18;;;;;;;14.45;100.00;100629.16;4983663;28;20027;-95
2023/08/09 05:23:03;;;;;;;6.80;5.72;;;;;;;14.49;100.00;100624.59;4971388;28;20481;-95
2023/08/09 05:25:29;;;;;;;8.18;6.05;;;;;;;14.48;100.00;100641.91;4973036;28;20030;-94
2023/08/09 05:27:55;;;;;;;10.63;6.07;;;;;;;14.47;100.00;100635.09;4971339;28;20041;-96
2023/08/09 05:30:22;;;;;;;13.95;6.85;;;;;;;14.48;100.00;100625.50;4971432;28;20034;-96
2023/08/09 05:32:48;;;;;;;8.48;5.47;;;;;;;14.46;100.00;100628.25;4972173;28;20033;-95
2023/08/09 05:35:13;;;;;;;10.80;6.00;;;;;;;14.46;100.00;100630.84;4971743;28;20027;-95
2023/08/09 05:37:39;;;;;;;11.85;5.80;;;;;;;14.48;100.00;100634.13;4979035;28;20368;-94
2023/08/09 05:40:08;;;;;;;6.38;4.95;;;;;;;14.52;100.00;100632.97;4974547;28;20027;-94
2023/08/09 05:42:33;;;;;;;7.72;5.82;;;;;;;14.55;100.00;100637.97;4981341;28;20034;-95
2023/08/09 05:44:59;;;;;;;15.70;6.85;;;;;;;14.67;100.00;100633.69;4984889;28;20496;-95
2023/08/09 05:47:24;;;;;;;11.65;7.03;;;;;;;14.71;100.00;100636.91;4976447;28;20019;-95
2023/08/09 05:49:50;;;;;;;7.28;5.60;;;;;;;14.66;100.00;100628.63;4975994;28;20053;-95
2023/08/09 05:52:15;;;;;;;7.78;5.55;;;;;;;14.69;100.00;100631.00;4975545;28;20077;-96
2023/08/09 05:54:40;;;;;;;9.52;6.25;;;;;;;14.73;100.00;100632.44;4974376;28;20058;-95
2023/08/09 05:57:06;;;;;;;8.43;5.57;;;;;;;14.76;100.00;100640.00;4975288;28;20351;-95
2023/08/09 05:59:31;;;;;;;19.35;7.65;;;;;;;14.80;100.00;100645.81;4975122;28;20508;-96
2023/08/09 06:01:56;;;;;;;9.07;6.88;;;;;;;14.79;100.00;100649.34;4975251;28;20035;-96
2023/08/09 06:04:22;;;;;;;9.20;6.85;;;;;;;14.83;100.00;100656.81;4994564;28;20078;-96
2023/08/09 06:06:47;;;;;;;11.10;6.68;;;;;;;15.00;100.00;100653.00;4994807;28;20025;-95
2023/08/09 06:09:13;;;;;;;13.57;7.07;;;;;;;15.11;100.00;100660.00;4984937;28;20500;-95
2023/08/09 06:11:39;;;;;;;17.65;6.70;;;;;;;15.20;100.00;100654.16;4975432;28;20538;-96
2023/08/09 06:14:04;;;;;;;10.40;7.20;;;;;;;15.17;100.00;100657.81;4994326;28;20030;-95
2023/08/09 06:16:30;;;;;;;10.57;7.05;;;;;;;15.17;100.00;100678.59;4994807;28;20045;-96
2023/08/09 06:18:55;;;;;;;10.18;6.63;;;;;;;15.23;100.00;100674.72;4993517;28;20027;-96
2023/08/09 06:21:21;;;;;;;9.82;6.85;;;;;;;15.24;100.00;100676.38;4976207;28;20031;-95
2023/08/09 06:23:46;;;;;;;10.10;6.78;;;;;;;15.39;100.00;100679.63;4975381;28;20027;-95
2023/08/09 06:26:12;;;;;;;12.27;7.25;;;;;;;15.56;100.00;100676.59;4975092;28;20085;-95
2023/08/09 06:28:38;;;;;;;12.38;8.05;;;;;;;15.83;100.00;100678.13;4982958;28;20133;-94
2023/08/09 06:31:03;;;;;;;11.00;7.82;;;;;;;16.02;100.00;100683.56;4975301;28;20544;-95
2023/08/09 06:33:30;;;;;;;10.38;7.15;;;;;;;16.08;100.00;100690.09;4985966;28;20034;-95
2023/08/09 06:35:56;;;;;;;11.70;6.40;;;;;;;16.23;100.00;100686.28;4984872;28;20477;-96
2023/08/09 06:38:21;;;;;;;9.68;6.78;;;;;;;16.59;100.00;100696.59;4978531;28;20117;-94
2023/08/09 06:40:47;;;;;;;9.35;6.65;;;;;;;16.70;100.00;100696.53;4994690;28;20023;-96
2023/08/09 06:43:21;;;;;;;9.13;6.53;;;;;;;16.60;100.00;100699.03;4994067;28;20035;-96
2023/08/09 06:45:48;;;;;;;8.45;6.53;;;;;;;16.55;100.00;100698.59;4968083;28;20023;-96
2023/08/09 06:48:14;;;;;;;11.27;7.47;;;;;;;16.68;100.00;100691.47;4980206;28;20034;-96
2023/08/09 06:50:39;;;;;;;11.68;7.43;;;;;;;18.06;100.00;100691.59;4979652;28;20018;-96
2023/08/09 06:53:43;;;;;;;9.45;6.60;;;;;;;18.85;100.00;100693.50;4977904;28;20045;-96
2023/08/09 06:56:17;;;;;;;10.13;6.30;;;;;;;21.89;84.46;100688.41;4984545;28;20058;-96
2023/08/09 06:58:43;;;;;;;7.25;5.65;;;;;;;24.66;63.92;100697.44;4996620;28;20031;-95
2023/08/09 07:11:44;;;;;;;6.60;4.63;;;;;;;21.12;74.94;100699.50;5338783;23;20025;-96
2023/08/09 07:19:37;;;;;;;7.53;5.00;;;;;;;20.80;76.12;100707.88;5452643;23;20065;-96
2023/08/09 07:22:03;;;;;;;6.07;4.35;;;;;;;21.75;70.03;100711.66;4989347;28;20030;-96
2023/08/09 07:24:28;;;;;;;7.00;3.95;;;;;;;25.56;56.28;100719.75;4990394;28;20045;-96
2023/08/09 07:26:54;;;;;;;6.18;4.10;;;;;;;27.51;50.34;100730.66;4981980;28;20018;-95
2023/08/09 07:29:19;;;;;;;5.18;4.22;;;;;;;26.51;51.38;100734.06;4981008;28;20077;-96
2023/08/09 07:31:44;;;;;;;7.35;4.80;;;;;;;25.94;52.44;100741.69;4984430;28;20053;-95
2023/08/09 07:34:10;;;;;;;5.10;3.67;;;;;;;27.50;49.27;100735.13;4985007;28;20485;-96
2023/08/09 07:36:35;;;;;;;7.53;3.65;;;;;;;28.12;47.88;100754.78;4989251;28;20037;-95
2023/08/09 07:39:01;;;;;;;6.65;3.83;;;;;;;25.99;51.05;100757.00;4973537;28;20030;-96
2023/08/09 07:41:26;;;;;;;6.25;3.92;;;;;;;25.80;53.25;100750.38;4980332;28;20027;-95
2023/08/09 07:43:52;;;;;;;6.45;3.83;;;;;;;28.76;45.56;100750.97;4984565;28;20030;-94
2023/08/09 07:46:17;;;;;;;5.18;3.85;;;;;;;27.73;46.94;100761.44;4985183;28;20117;-95
2023/08/09 07:48:42;;;;;;;8.00;3.35;;;;;;;28.12;47.58;100770.69;4976396;28;20053;-95
2023/08/09 07:51:11;;;;;;;5.25;4.03;;;;;;;27.78;47.58;100754.72;4974583;28;20424;-95
2023/08/09 07:53:40;;;;;;;9.73;3.75;;;;;;;28.94;45.92;100755.69;4974311;28;20030;-96
2023/08/09 07:56:09;;;;;;;4.93;3.25;;;;;;;28.80;45.35;100762.84;4988432;28;20027;-96
2023/08/09 07:58:34;;;;;;;6.80;3.58;;;;;;;27.45;48.16;100765.88;4980723;28;20401;-96
2023/08/09 08:01:01;;;;;;;5.72;3.97;;;;;;;28.16;46.70;100769.25;4974328;28;20038;-96
2023/08/09 08:03:27;;;;;;;5.80;3.13;;;;;;;27.68;46.97;100769.16;4976244;28;20033;-96
2023/08/09 08:05:52;;;;;;;6.88;3.00;;;;;;;27.08;48.83;100770.41;4986074;28;20109;-96
2023/08/09 08:08:18;;;;;;;4.55;2.97;;;;;;;27.29;48.40;100769.63;4977862;28;20023;-94
2023/08/09 08:10:44;;;;;;;4.88;2.30;;;;;;;27.99;46.07;100770.59;4988466;28;20035;-96
2023/08/09 08:13:11;;;;;;;4.57;2.80;;;;;;;28.32;45.47;100780.59;4989282;28;20022;-95
2023/08/09 08:15:39;;;;;;;5.57;3.25;;;;;;;28.78;45.03;100769.38;4972517;28;20018;-95
2023/08/09 08:18:05;;;;;;;3.95;2.47;;;;;;;28.32;45.23;100780.59;4984645;28;20496;-96
2023/08/09 08:20:30;;;;;;;5.53;2.30;;;;;;;28.04;45.75;100773.47;4979607;28;20032;-95
2023/08/09 08:22:56;;;;;;;3.35;2.53;;;;;;;27.03;48.03;100775.44;4976765;28;20477;-95
2023/08/09 08:25:21;;;;;;;3.88;2.40;;;;;;;27.00;48.02;100767.88;4972623;28;20023;-95
2023/08/09 08:27:47;;;;;;;6.03;2.00;;;;;;;28.43;45.54;100772.06;4987912;28;20425;-96
2023/08/09 08:30:18;;;;;;;3.30;2.22;;;;;;;27.77;46.93;100771.63;4987211;28;20486;-94
2023/08/09 08:32:44;;;;;;;;;;;;;;;27.93;46.05;100777.50;4979937;28;20065;-95
2023/08/09 08:35:11;;;;;;;3.47;2.08;;;;;;;28.12;45.51;100783.16;4987930;28;19914;-95
2023/08/09 08:37:38;;;;;;;5.10;2.65;;;;;;;27.99;45.84;100781.22;4983217;28;20094;-94
2023/08/09 08:40:08;;;;;;;5.45;2.13;;;;;;;28.20;44.66;100776.84;4974597;28;20374;-94
2023/08/09 08:42:34;;;;;;;3.90;2.28;;;;;;;27.71;47.59;100779.34;4981529;28;20117;-96
2023/08/09 08:45:00;;;;;;;2.92;1.90;;;;;;;28.25;45.65;100777.91;4983989;28;20077;-95
2023/08/09 08:47:28;;;;;;;3.25;2.03;;;;;;;28.44;45.23;100773.72;4992419;28;20022;-95
2023/08/09 08:49:57;;;;;;;3.25;1.92;;;;;;;28.29;46.57;100783.66;4980641;28;20018;-95
2023/08/09 08:52:27;;;;;;;4.82;2.78;;;;;;;27.62;46.66;100785.81;4994884;28;20120;-95
2023/08/09 08:54:53;;;;;;;2.08;1.50;;;;;;;28.33;45.16;100790.19;4998696;28;20034;-96
2023/08/09 08:57:20;;;;;;;9.40;2.35;;;;;;;28.12;44.17;100786.63;4989681;28;20027;-96
2023/08/09 08:59:50;;;;;;;4.07;2.08;;;;;;;28.23;43.90;100787.88;5107263;23;20067;-96
2023/08/09 09:02:15;;;;;;;4.13;1.80;;;;;;;27.79;45.14;100785.53;4949294;29;20418;-94
2023/08/09 09:04:41;;;;;;;3.33;1.65;;;;;;;28.54;43.46;100784.81;4932932;29;20542;-93
2023/08/09 09:07:06;;;;;;;4.75;1.63;;;;;;;28.43;42.78;100787.19;4931427;29;20006;-96
2023/08/09 09:09:32;;;;;;;5.90;1.70;;;;;;;28.14;43.43;100794.38;4933842;29;20591;-96
2023/08/09 09:12:01;;;;;;;2.80;1.27;;;;;;;28.55;43.64;100796.25;4932753;29;20459;-95
2023/08/09 09:14:26;;;;;;;5.32;1.48;;;;;;;28.88;43.04;100798.22;4932635;29;20020;-95
2023/08/09 09:16:52;;;;;;;4.30;2.25;;;;;;;29.03;42.52;100794.38;4934979;29;20030;-96
2023/08/09 09:19:17;;;;;;;3.95;1.40;;;;;;;29.10;42.12;100793.59;4936752;29;20023;-96
2023/08/09 09:21:43;;;;;;;3.63;1.83;;;;;;;28.67;44.05;100799.16;4937250;29;20020;-96
2023/08/09 09:24:09;;;;;;;2.83;1.15;;;;;;;27.75;45.97;100793.03;4937326;29;20028;-96
2023/08/09 09:26:37;;;;;;;5.55;1.52;;;;;;;28.68;44.51;100790.16;4934166;29;20102;-96
2023/08/09 09:29:06;;;;;;;3.33;1.13;;;;;;;28.74;42.91;100795.50;4941309;29;20115;-96
2023/08/09 09:31:40;;;;;;;3.38;1.00;;;;;;;28.62;44.12;100796.28;4935398;29;20051;-96
2023/08/09 09:34:07;;;;;;;1.65;1.20;;;;;;;27.97;44.49;100796.53;4933962;29;20111;-95
2023/08/09 09:36:33;;;;;;;3.58;1.42;;;;;;;28.58;44.04;100799.34;4935694;29;20024;-96
2023/08/09 09:38:59;;;;;;;3.03;1.05;;;;;;;28.75;44.05;100796.31;4936142;29;20020;-96
2023/08/09 09:41:25;;;;;;;1.85;1.25;;;;;;;29.03;43.24;100799.69;4936683;29;20438;-96
2023/08/09 09:43:51;;;;;;;2.03;0.80;;;;;;;29.13;42.13;100804.63;4934405;29;20573;-96
2023/08/09 09:46:25;;;;;;;2.88;0.70;;;;;;;29.42;42.27;100803.47;4938376;28;20028;-96
2023/08/09 09:49:05;;;;;;;2.90;0.90;;;;;;;29.27;41.74;100805.50;4936009;29;20044;-96
2023/08/09 09:51:30;;;;;;;1.85;0.85;;;;;;;29.54;41.84;100803.66;4934848;29;20030;-95
2023/08/09 09:53:56;;;;;;;3.50;0.82;;;;;;;29.55;40.58;100799.97;4936534;29;20020;-95
2023/08/09 09:56:22;;;;;;;1.00;0.80;;;;;;;29.89;41.36;100798.16;4935208;29;20030;-92
2023/08/09 09:58:47;;;;;;;4.53;1.27;;;;;;;30.11;40.35;100796.06;4935361;29;20042;-94
2023/08/09 10:01:20;;;;;;;2.75;1.65;;;;;;;30.00;40.97;100802.03;4935454;29;20032;-91
2023/08/09 10:03:48;;;;;;;3.92;2.20;;;;;;;29.91;41.46;100800.63;4936261;29;20040;-93
2023/08/09 10:06:39;;;;;;;6.30;3.83;;;;;;;30.08;39.87;100799.16;4936305;29;20028;-93
2023/08/09 10:09:08;;;;;;;9.05;4.18;;;;;;;30.20;39.70;100796.66;4934898;29;20659;-92
2023/08/09 10:11:34;;;;;;;9.48;4.82;;;;;;;29.27;41.21;100797.53;4936400;29;20078;-92
2023/08/09 10:14:02;;;;;;;7.65;4.07;;;;;;;30.04;41.64;100803.25;4935426;29;20474;-92
2023/08/09 10:16:31;;;;;;;5.82;2.20;;;;;;;30.25;39.74;100800.38;4937002;29;20060;-92
2023/08/09 10:19:00;;;;;;;5.40;1.50;;;;;;;30.37;40.13;100795.22;4925906;29;20107;-92
2023/08/09 10:21:26;;;;;;;3.05;1.77;;;;;;;30.54;39.32;100795.56;4918491;29;20115;-93
2023/08/09 10:23:55;;;;;;;3.72;1.42;;;;;;;30.38;41.94;100796.84;4920886;29;20130;-92
2023/08/09 10:26:29;;;;;;;3.97;2.33;;;;;;;30.35;40.10;100797.25;4918313;29;20024;-93
2023/08/09 10:29:23;;;;;;;3.42;2.33;;;;;;;30.55;37.80;100791.84;4916180;29;20056;-93
2023/08/09 10:32:02;;;;;;;4.32;2.55;;;;;;;30.37;37.97;100783.75;4916527;29;20050;-93
2023/08/09 10:34:42;;;;;;;4.40;2.55;;;;;;;30.55;38.50;100785.72;4918448;29;20025;-93
2023/08/09 10:37:10;;;;;;;5.10;2.67;;;;;;;30.62;38.03;100776.66;4919697;29;20024;-94
2023/08/09 10:39:36;;;;;;;7.97;3.05;;;;;;;30.68;39.47;100786.50;4935118;29;20036;-93
2023/08/09 10:42:05;;;;;;;8.75;5.07;;;;;;;31.13;38.55;100793.63;4937257;29;20032;-92
2023/08/09 10:45:02;;;;;;;9.68;6.03;;;;;;;30.97;37.83;100794.97;4927836;29;20093;-93
2023/08/09 10:47:28;;;;;;;11.75;6.22;;;;;;;31.23;37.20;100793.16;4917812;29;20593;-92
2023/08/09 10:49:53;;;;;;;10.63;6.10;;;;;;;31.13;37.12;100796.31;4928513;29;20027;-92
2023/08/09 10:52:21;;;;;;;12.18;7.00;;;;;;;31.12;36.84;100792.03;4936831;29;20028;-93
2023/08/09 10:54:49;;;;;;;6.78;4.22;;;;;;;31.65;36.86;100793.47;4934505;29;20020;-93
2023/08/09 10:57:16;;;;;;;5.90;3.65;;;;;;;31.29;36.07;100792.31;4936698;29;20579;-92
2023/08/09 10:59:46;;;;;;;8.50;5.53;;;;;;;31.10;36.91;100799.41;4935610;29;20053;-92
2023/08/09 11:02:15;;;;;;;6.03;4.43;;;;;;;31.53;37.23;100796.88;4935599;29;20031;-95
2023/08/09 11:04:43;;;;;;;7.40;4.65;;;;;;;31.61;36.33;100798.44;4936438;29;20035;-94
2023/08/09 11:07:24;;;;;;;8.60;4.35;;;;;;;31.52;37.26;100803.22;4941456;29;20075;-96
2023/08/09 11:09:49;;;;;;;;;;;;;;;31.86;35.94;100798.41;4943490;29;20048;-96
2023/08/09 11:12:16;;;;;;;11.03;4.73;;;;;;;32.17;35.64;100799.38;4935357;29;19911;-96
2023/08/09 11:14:44;;;;;;;10.38;5.72;;;;;;;32.29;35.67;100792.25;4945917;28;20271;-96
2023/08/09 11:17:16;;;;;;;8.77;5.32;;;;;;;31.78;35.36;100793.38;4919410;29;20476;-93
2023/08/09 11:19:41;;;;;;;7.45;4.88;;;;;;;32.29;35.10;100802.94;4925999;29;20364;-93
2023/08/09 11:22:07;;;;;;;6.30;3.97;;;;;;;32.62;35.29;100804.41;4938892;29;20043;-93
2023/08/09 11:24:33;;;;;;;5.65;3.85;;;;;;;32.82;34.02;100802.31;4921096;29;20039;-94
2023/08/09 11:26:59;;;;;;;5.57;3.78;;;;;;;33.04;34.64;100804.47;4919586;29;20025;-93
2023/08/09 11:29:27;;;;;;;4.57;3.22;;;;;;;33.12;34.60;100806.03;4933925;29;20035;-94
2023/08/09 11:31:55;;;;;;;5.20;3.00;;;;;;;32.75;33.66;100801.59;4935404;29;20035;-93
2023/08/09 11:34:22;;;;;;;3.92;2.53;;;;;;;33.07;33.19;100808.56;4935939;29;20534;-94